KWVL/WVL METAR and TAF weather

Enter ICAO airport designator
Station Type Date Time Source
KWVL METAR 2021/04/18 01:56 UTC NOAA

KWVL 180156Z AUTO 35007KT 10SM SCT030 OVC039 04/03 A2973 RMK AO2 RAE10 SLP098 P0001 T00440028


Station Type Date Time Source
KWVL Decoded METAR 2021/04/18 01:56 UTC NOAA

Waterville, Waterville Robert LaFleur Airport, ME, United States (KWVL) 44-32N 069-41W
Apr 17, 2021 - 09:56 PM EDT / 2021.04.18 0156 UTC
Wind: from the N (350 degrees) at 8 MPH (7 KT):0
Visibility: 10 mile(s):0
Sky conditions: overcast
Precipitation last hour: 0.01 inches
Temperature: 39.9 F (4.4 C)
Dew Point: 37.0 F (2.8 C)
Relative Humidity: 89%
Pressure (altimeter): 29.73 in. Hg (1006 hPa)
ob: KWVL 180156Z AUTO 35007KT 10SM SCT030 OVC039 04/03 A2973 RMK AO2 RAE10 SLP098 P0001 T00440028
cycle: 2

Station Type Date Time Source
KWVL TAF UTC NOAA

Error!

Example: see airport list